Time;durP1;ratioP1;P1;durP2;ratioP2;P2;SDS_P1;SDS_P2;PMS_P1;PMS_P2;Temp;Humidity;BMP_temperature;BMP_pressure;BME280_temperature;BME280_humidity;BME280_pressure;Samples;Min_cycle;Max_cycle;Signal;HPM_P1;HPM_P2
2022/03/07 00:00:48;;;;;;;9.60;5.18;;;;;;;-0.22;87.69;102741.88;5072923;28;20075;-60
2022/03/07 00:03:16;;;;;;;10.32;4.90;;;;;;;-0.25;87.77;102741.81;5072681;28;20549;-58
2022/03/07 00:05:45;;;;;;;9.98;5.20;;;;;;;-0.26;88.21;102739.22;5072641;28;20098;-58
2022/03/07 00:08:14;;;;;;;9.45;4.95;;;;;;;-0.26;88.08;102742.69;5072626;28;20102;-59
2022/03/07 00:11:02;;;;;;;10.90;4.95;;;;;;;-0.26;87.95;102742.69;5072693;28;20127;-58
2022/03/07 00:13:30;;;;;;;11.50;5.10;;;;;;;-0.30;88.29;102743.53;5072617;28;20040;-58
2022/03/07 00:16:01;;;;;;;11.15;4.82;;;;;;;-0.27;88.00;102740.97;5071509;28;20126;-58
2022/03/07 00:18:30;;;;;;;9.70;5.22;;;;;;;-0.30;88.76;102743.53;5072599;28;20059;-58
2022/03/07 00:20:59;;;;;;;11.95;5.55;;;;;;;-0.32;88.96;102745.22;5072512;28;20044;-59
2022/03/07 00:23:28;;;;;;;10.63;4.78;;;;;;;-0.37;88.73;102746.88;5072397;28;20067;-59
2022/03/07 00:25:56;;;;;;;13.90;6.00;;;;;;;-0.38;88.89;102752.91;5072429;28;20063;-54
2022/03/07 00:28:24;;;;;;;10.80;5.95;;;;;;;-0.38;88.87;102752.91;5071049;28;20048;-54
2022/03/07 00:30:52;;;;;;;8.77;5.68;;;;;;;-0.36;88.33;102743.44;5072185;28;20052;-52
2022/03/07 00:33:21;;;;;;;9.55;5.57;;;;;;;-0.39;88.31;102751.19;5072439;28;20365;-59
2022/03/07 00:35:49;;;;;;;10.52;5.22;;;;;;;-0.41;88.59;102742.50;5072215;28;20471;-58
2022/03/07 00:38:17;;;;;;;19.70;5.40;;;;;;;-0.41;88.20;102753.75;5072517;28;20052;-59
2022/03/07 00:40:47;;;;;;;11.10;5.30;;;;;;;-0.44;88.16;102748.50;5072501;28;20048;-51
2022/03/07 00:43:15;;;;;;;10.20;5.22;;;;;;;-0.45;88.21;102748.50;5071691;28;20225;-58
2022/03/07 00:45:43;;;;;;;8.57;4.75;;;;;;;-0.53;88.55;102757.03;5071961;28;20052;-59
2022/03/07 00:48:11;;;;;;;11.10;5.38;;;;;;;-0.52;87.89;102748.44;5071851;28;20044;-58
2022/03/07 00:50:42;;;;;;;10.05;4.75;;;;;;;-0.58;88.01;102752.69;5072040;28;20056;-58
2022/03/07 00:53:11;;;;;;;10.27;5.50;;;;;;;-0.51;88.39;102757.06;5072161;28;20105;-58
2022/03/07 00:55:40;;;;;;;8.68;4.60;;;;;;;-0.41;87.36;102758.03;5072237;28;20518;-60
2022/03/07 00:58:10;;;;;;;11.27;5.32;;;;;;;-0.49;88.30;102754.50;5071936;28;20127;-59
2022/03/07 01:00:39;;;;;;;8.90;4.70;;;;;;;-0.52;88.58;102761.38;5072114;28;20499;-59
2022/03/07 01:03:09;;;;;;;8.55;4.65;;;;;;;-0.55;88.62;102763.03;5072109;28;20658;-59
2022/03/07 01:05:38;;;;;;;9.75;5.35;;;;;;;-0.52;88.49;102753.63;5076669;28;20127;-59
2022/03/07 01:08:06;;;;;;;9.02;5.25;;;;;;;-0.63;89.36;102755.19;5078542;28;20052;-59
2022/03/07 01:10:36;;;;;;;10.23;5.25;;;;;;;-0.68;89.00;102769.78;5078808;28;20533;-59
2022/03/07 01:13:04;;;;;;;9.00;5.07;;;;;;;-0.68;89.02;102760.31;5078598;28;20048;-59
2022/03/07 01:15:34;;;;;;;9.90;5.18;;;;;;;-0.72;89.41;102768.03;5078665;28;20386;-60
2022/03/07 01:18:04;;;;;;;9.48;5.10;;;;;;;-0.68;89.57;102770.66;5078588;28;20491;-58
2022/03/07 01:20:33;;;;;;;9.57;5.40;;;;;;;-0.71;89.71;102767.16;5078609;28;20098;-59
2022/03/07 01:23:01;;;;;;;10.50;5.40;;;;;;;-0.76;89.86;102766.25;5078512;28;20426;-59
2022/03/07 01:25:30;;;;;;;9.90;5.45;;;;;;;-0.77;89.39;102769.69;5078521;28;20044;-59
2022/03/07 01:27:58;;;;;;;10.13;5.00;;;;;;;-0.91;90.06;102770.34;5078554;28;20060;-59
2022/03/07 01:30:26;;;;;;;11.18;5.75;;;;;;;-0.98;90.88;102760.78;5078718;28;20079;-59
2022/03/07 01:32:55;;;;;;;11.52;5.47;;;;;;;-1.00;90.72;102759.88;5078443;28;20674;-59
2022/03/07 01:35:24;;;;;;;11.93;6.60;;;;;;;-0.98;90.96;102768.53;5078391;28;20040;-58
2022/03/07 01:37:52;;;;;;;10.95;6.05;;;;;;;-1.00;91.10;102765.06;5078527;28;20044;-59
2022/03/07 01:40:20;;;;;;;9.00;4.97;;;;;;;-0.93;90.77;102758.25;5078394;28;20049;-59
2022/03/07 01:42:48;;;;;;;10.55;5.70;;;;;;;-0.99;91.07;102760.78;5078218;28;20109;-59
2022/03/07 01:45:18;;;;;;;12.02;5.88;;;;;;;-1.03;90.69;102752.09;5078270;28;20706;-59
2022/03/07 01:47:48;;;;;;;10.35;5.78;;;;;;;-1.07;91.37;102761.50;5078398;28;20060;-59
2022/03/07 01:50:19;;;;;;;11.68;5.70;;;;;;;-1.09;91.34;102763.22;5078321;28;20055;-59
2022/03/07 01:52:50;;;;;;;9.25;5.32;;;;;;;-1.05;91.13;102749.50;5078213;28;20407;-59
2022/03/07 01:55:19;;;;;;;9.65;5.90;;;;;;;-1.08;91.10;102754.63;5078346;28;20116;-59
2022/03/07 01:57:49;;;;;;;9.68;5.70;;;;;;;-1.10;91.29;102758.03;5076866;28;20040;-59
2022/03/07 02:00:19;;;;;;;10.05;5.80;;;;;;;-1.07;90.76;102760.66;5078267;28;20049;-59
2022/03/07 02:02:48;;;;;;;8.63;5.30;;;;;;;-1.12;90.87;102763.16;5078203;28;20116;-59
2022/03/07 02:05:18;;;;;;;11.38;5.20;;;;;;;-1.12;91.26;102760.56;5078090;28;20105;-58
2022/03/07 02:07:46;;;;;;;10.32;5.80;;;;;;;-1.19;92.01;102766.50;5077912;28;20056;-58
2022/03/07 02:10:15;;;;;;;10.05;5.68;;;;;;;-1.16;91.86;102755.34;5077992;28;20048;-54
2022/03/07 02:12:43;;;;;;;11.90;5.88;;;;;;;-1.21;91.87;102758.75;5077895;28;20041;-52
2022/03/07 02:15:12;;;;;;;10.85;6.10;;;;;;;-1.24;92.31;102758.69;5077908;28;20045;-59
2022/03/07 02:17:45;;;;;;;10.73;6.30;;;;;;;-1.27;92.36;102756.09;5074912;28;20052;-59
2022/03/07 02:20:15;;;;;;;12.40;5.93;;;;;;;-1.30;93.45;102758.59;5074869;28;20044;-59
2022/03/07 02:22:45;;;;;;;13.02;6.43;;;;;;;-1.31;93.82;102761.16;5075059;28;20139;-60
2022/03/07 02:25:13;;;;;;;13.00;6.57;;;;;;;-1.34;93.46;102759.41;5074638;28;20094;-60
2022/03/07 02:27:41;;;;;;;13.30;6.18;;;;;;;-1.36;93.26;102759.38;5074738;28;20049;-49
2022/03/07 02:30:10;;;;;;;11.15;5.80;;;;;;;-1.31;92.95;102763.75;5074821;28;20040;-60
2022/03/07 02:32:41;;;;;;;15.73;6.35;;;;;;;-1.31;92.98;102759.47;5074878;28;20446;-59
2022/03/07 02:35:11;;;;;;;11.57;6.07;;;;;;;-1.39;93.48;102761.03;5074441;28;20091;-51
2022/03/07 02:37:41;;;;;;;11.13;6.28;;;;;;;-1.40;94.24;102759.31;5074846;28;20121;-60
2022/03/07 02:40:12;;;;;;;13.77;6.38;;;;;;;-1.39;93.49;102764.50;5074476;28;20047;-52
2022/03/07 02:43:00;;;;;;;10.88;5.80;;;;;;;-1.45;93.75;102760.97;5074478;28;20434;-55
2022/03/07 02:45:28;;;;;;;10.45;5.47;;;;;;;-1.43;93.34;102757.56;5074306;28;20127;-59
2022/03/07 02:47:56;;;;;;;13.85;6.45;;;;;;;-1.43;93.73;102756.66;5074639;28;20060;-54
2022/03/07 02:50:24;;;;;;;10.88;5.97;;;;;;;-1.41;93.30;102752.41;5074411;28;20056;-59
2022/03/07 02:52:52;;;;;;;12.23;6.28;;;;;;;-1.56;95.65;102751.31;5074560;28;20044;-56
2022/03/07 02:55:22;;;;;;;11.82;6.43;;;;;;;-1.61;95.53;102752.97;5074103;28;20048;-53
2022/03/07 02:57:50;;;;;;;11.02;6.15;;;;;;;-1.62;95.69;102748.66;5074071;28;20368;-59
2022/03/07 03:00:18;;;;;;;13.35;7.10;;;;;;;-1.59;95.61;102748.69;5074314;28;20044;-59
2022/03/07 03:02:48;;;;;;;10.60;6.07;;;;;;;-1.60;95.75;102746.94;5074275;28;20110;-59
2022/03/07 03:05:16;;;;;;;14.65;6.43;;;;;;;-1.57;95.06;102748.72;5073806;28;20045;-53
2022/03/07 03:07:47;;;;;;;11.85;6.45;;;;;;;-1.58;94.59;102750.44;5073956;28;20075;-59
2022/03/07 03:10:15;;;;;;;11.25;6.15;;;;;;;-1.61;94.40;102755.56;5073679;28;20068;-52
2022/03/07 03:12:45;;;;;;;12.60;5.22;;;;;;;-1.60;94.17;102751.25;5072602;28;20048;-54
2022/03/07 03:15:13;;;;;;;12.93;6.10;;;;;;;-1.62;94.14;102756.41;5073605;28;20499;-53
2022/03/07 03:17:42;;;;;;;11.73;6.65;;;;;;;-1.64;93.72;102754.63;5073262;28;20059;-53
2022/03/07 03:20:13;;;;;;;11.32;5.80;;;;;;;-1.70;94.33;102752.81;5071813;28;20503;-51
2022/03/07 03:22:43;;;;;;;10.95;6.15;;;;;;;-1.76;94.12;102755.28;5073546;28;20040;-54
2022/03/07 03:25:12;;;;;;;11.30;6.22;;;;;;;-1.73;94.08;102757.94;5073334;28;20044;-59
2022/03/07 03:27:41;;;;;;;11.73;6.05;;;;;;;-1.76;93.35;102753.59;5073196;28;20048;-59
2022/03/07 03:30:12;;;;;;;12.95;6.57;;;;;;;-1.79;93.87;102755.25;5073575;28;20048;-59
2022/03/07 03:32:41;;;;;;;12.73;6.80;;;;;;;-1.91;93.43;102749.03;5072478;28;20056;-59
2022/03/07 03:35:09;;;;;;;14.32;6.93;;;;;;;-1.91;94.31;102745.56;5073371;28;20045;-59
2022/03/07 03:37:38;;;;;;;11.25;6.75;;;;;;;-1.91;94.67;102753.31;5073511;28;20098;-53
2022/03/07 03:40:08;;;;;;;12.50;6.82;;;;;;;-1.97;95.03;102748.94;5073287;28;20048;-54
2022/03/07 03:42:37;;;;;;;11.82;6.05;;;;;;;-1.96;95.12;102740.34;5073332;28;20373;-55
2022/03/07 03:45:06;;;;;;;13.25;6.65;;;;;;;-2.00;94.99;102748.00;5073332;28;20048;-59
2022/03/07 03:47:36;;;;;;;14.27;7.50;;;;;;;-2.05;95.12;102746.19;5073295;28;20136;-55
2022/03/07 03:50:08;;;;;;;11.45;6.13;;;;;;;-2.05;94.58;102755.66;5073124;28;20045;-52
2022/03/07 03:52:36;;;;;;;12.95;6.95;;;;;;;-2.07;95.86;102757.34;5071435;28;20053;-59
2022/03/07 03:55:05;;;;;;;11.35;6.45;;;;;;;-2.12;96.43;102749.50;5072779;28;20102;-50
2022/03/07 03:57:33;;;;;;;15.80;7.45;;;;;;;-2.10;95.68;102753.00;5072994;28;20052;-59
2022/03/07 04:00:05;;;;;;;13.23;6.78;;;;;;;-2.07;95.05;102747.03;5072744;28;20098;-53
2022/03/07 04:02:34;;;;;;;11.32;7.57;;;;;;;-2.08;94.58;102747.88;5072933;28;20033;-59
2022/03/07 04:05:04;;;;;;;12.35;6.78;;;;;;;-2.16;95.13;102750.31;5072724;28;20541;-60
2022/03/07 04:07:32;;;;;;;13.80;7.40;;;;;;;-2.15;95.72;102748.63;5071655;28;20071;-59
2022/03/07 04:10:00;;;;;;;14.27;7.78;;;;;;;-2.22;96.09;102758.78;5072787;28;20044;-59
2022/03/07 04:12:28;;;;;;;13.65;7.32;;;;;;;-2.24;96.32;102751.88;5072683;28;20113;-60
2022/03/07 04:14:56;;;;;;;13.68;6.97;;;;;;;-2.24;96.93;102755.31;5072631;28;20053;-52
2022/03/07 04:17:25;;;;;;;14.32;8.13;;;;;;;-2.25;95.83;102760.44;5072750;28;20049;-53
2022/03/07 04:19:53;;;;;;;13.90;7.35;;;;;;;-2.18;95.62;102759.75;5072814;28;20036;-59
2022/03/07 04:22:22;;;;;;;13.02;7.47;;;;;;;-2.18;96.17;102764.91;5072580;28;20036;-59
2022/03/07 04:24:50;;;;;;;15.20;7.55;;;;;;;-2.13;95.47;102767.53;5071225;28;20526;-59
2022/03/07 04:27:19;;;;;;;12.80;7.82;;;;;;;-2.22;95.77;102766.53;5072032;28;20526;-59
2022/03/07 04:29:47;;;;;;;18.80;7.65;;;;;;;-2.27;96.15;102764.72;5072502;28;20569;-59
2022/03/07 04:32:15;;;;;;;16.15;7.43;;;;;;;-2.35;96.18;102761.13;5072243;28;20044;-59
2022/03/07 04:34:43;;;;;;;13.90;7.38;;;;;;;-2.38;95.90;102761.94;5072533;28;20049;-59
2022/03/07 04:37:11;;;;;;;16.00;7.70;;;;;;;-2.37;96.76;102758.53;5072427;28;20483;-59
2022/03/07 04:39:41;;;;;;;16.13;7.88;;;;;;;-2.40;97.49;102755.84;5071826;28;20056;-58
2022/03/07 04:42:09;;;;;;;12.82;7.60;;;;;;;-2.41;98.12;102754.16;5072418;28;20052;-59
2022/03/07 04:44:38;;;;;;;15.60;7.88;;;;;;;-2.44;98.46;102751.47;5072515;28;20051;-59
2022/03/07 04:47:06;;;;;;;13.57;7.15;;;;;;;-2.41;98.51;102754.16;5072290;28;20430;-58
2022/03/07 04:49:34;;;;;;;11.93;7.03;;;;;;;-2.43;99.27;102754.09;5071212;28;20376;-58
2022/03/07 04:52:03;;;;;;;13.77;7.65;;;;;;;-2.44;99.67;102752.38;5072167;28;20551;-59
2022/03/07 04:54:34;;;;;;;14.05;7.75;;;;;;;-2.43;99.81;102750.66;5072649;28;20477;-59
2022/03/07 04:57:05;;;;;;;15.32;7.60;;;;;;;-2.42;100.00;102750.69;5072193;28;20044;-59
2022/03/07 04:59:33;;;;;;;16.42;8.05;;;;;;;-2.42;100.00;102745.53;5072442;28;20044;-59
2022/03/07 05:02:01;;;;;;;12.60;7.72;;;;;;;-2.43;100.00;102742.91;5072270;28;20048;-59
2022/03/07 05:04:29;;;;;;;15.30;7.72;;;;;;;-2.45;100.00;102748.06;5072296;28;20052;-59
2022/03/07 05:06:58;;;;;;;17.33;8.45;;;;;;;-2.47;100.00;102747.13;5071954;28;20065;-58
2022/03/07 05:09:26;;;;;;;14.77;8.32;;;;;;;-2.45;100.00;102749.78;5072217;28;20510;-59
2022/03/07 05:11:54;;;;;;;16.58;8.15;;;;;;;-2.48;100.00;102749.69;5072176;28;20037;-59
2022/03/07 05:14:23;;;;;;;16.77;8.20;;;;;;;-2.48;100.00;102749.69;5072069;28;20050;-59
2022/03/07 05:16:51;;;;;;;15.52;8.40;;;;;;;-2.50;100.00;102752.25;5072278;28;20059;-59
2022/03/07 05:19:20;;;;;;;13.25;7.28;;;;;;;-2.47;100.00;102748.84;5072165;28;20040;-59
2022/03/07 05:21:48;;;;;;;17.30;8.48;;;;;;;-2.44;100.00;102754.06;5070711;28;20057;-59
2022/03/07 05:24:16;;;;;;;14.20;8.20;;;;;;;-2.45;100.00;102752.34;5072026;28;20059;-59
2022/03/07 05:26:44;;;;;;;16.23;8.48;;;;;;;-2.41;99.98;102760.16;5072051;28;20044;-59
2022/03/07 05:29:12;;;;;;;16.83;7.95;;;;;;;-2.42;99.41;102765.28;5071769;28;20056;-59
2022/03/07 05:31:42;;;;;;;14.55;8.07;;;;;;;-2.45;99.17;102754.91;5072099;28;20503;-60
2022/03/07 05:34:10;;;;;;;13.90;8.10;;;;;;;-2.45;99.17;102754.91;5071538;28;20041;-59
2022/03/07 05:36:38;;;;;;;18.25;8.27;;;;;;;-2.49;99.19;102763.44;5070248;28;20064;-54
2022/03/07 05:39:06;;;;;;;15.32;7.97;;;;;;;-2.52;99.25;102771.06;5071398;28;20100;-52
2022/03/07 05:41:36;;;;;;;14.57;8.35;;;;;;;-2.58;100.00;102775.28;5071199;28;20519;-54
2022/03/07 05:44:05;;;;;;;19.00;8.52;;;;;;;-2.60;100.00;102774.38;5071095;28;20059;-51
2022/03/07 05:46:33;;;;;;;13.52;8.02;;;;;;;-2.60;100.00;102779.53;5071212;28;20063;-54
2022/03/07 05:49:03;;;;;;;17.05;8.60;;;;;;;-2.58;100.00;102774.41;5071596;28;20049;-51
2022/03/07 05:51:32;;;;;;;15.02;8.13;;;;;;;-2.58;100.00;102777.88;5073388;28;20048;-59
2022/03/07 05:54:00;;;;;;;17.00;8.80;;;;;;;-2.61;100.00;102777.78;5074795;28;20040;-59
2022/03/07 05:56:28;;;;;;;15.27;8.68;;;;;;;-2.60;99.95;102778.69;5075069;28;20067;-50
2022/03/07 05:58:56;;;;;;;13.35;7.78;;;;;;;-2.63;100.00;102770.84;5075355;28;20044;-59
2022/03/07 06:01:24;;;;;;;17.50;8.65;;;;;;;-2.62;100.00;102782.91;5075347;28;20049;-59
2022/03/07 06:03:52;;;;;;;13.85;7.80;;;;;;;-2.62;100.00;102788.06;5075426;28;20056;-59
2022/03/07 06:06:22;;;;;;;14.32;8.77;;;;;;;-2.56;100.00;102788.22;5074830;28;20049;-59
2022/03/07 06:08:51;;;;;;;16.10;8.07;;;;;;;-2.62;100.00;102786.38;5075557;28;20479;-59
2022/03/07 06:11:19;;;;;;;16.08;8.02;;;;;;;-2.63;100.00;102791.47;5075215;28;20107;-59
2022/03/07 06:13:47;;;;;;;18.23;9.02;;;;;;;-2.61;100.00;102790.66;5075006;28;20051;-58
2022/03/07 06:16:15;;;;;;;15.13;8.68;;;;;;;-2.62;100.00;102799.25;5075042;28;20376;-59
2022/03/07 06:18:43;;;;;;;16.63;9.25;;;;;;;-2.60;100.00;102797.56;5075310;28;20086;-59
2022/03/07 06:21:11;;;;;;;17.02;9.50;;;;;;;-2.60;100.00;102796.72;5075192;28;20056;-59
2022/03/07 06:23:42;;;;;;;15.07;8.65;;;;;;;-2.65;100.00;102799.16;5074966;28;20052;-59
2022/03/07 06:26:11;;;;;;;15.70;8.63;;;;;;;-2.59;100.00;102794.16;5074779;28;20052;-59
2022/03/07 06:28:39;;;;;;;14.70;8.48;;;;;;;-2.64;100.00;102794.91;5074739;28;20102;-59
2022/03/07 06:31:07;;;;;;;14.02;8.35;;;;;;;-2.69;100.00;102794.78;5074662;28;20037;-59
2022/03/07 06:33:36;;;;;;;14.70;9.00;;;;;;;-2.73;100.00;102801.59;5074892;28;20537;-59
2022/03/07 06:36:06;;;;;;;18.42;8.30;;;;;;;-2.80;100.00;102804.84;5074480;28;20055;-59
2022/03/07 06:38:34;;;;;;;17.33;7.90;;;;;;;-2.81;100.00;102797.09;5074860;28;20052;-59
2022/03/07 06:41:04;;;;;;;14.00;8.65;;;;;;;-2.79;100.00;102798.03;5074335;28;20407;-58
2022/03/07 06:43:32;;;;;;;16.50;8.45;;;;;;;-2.75;100.00;102802.41;5074503;28;20052;-59
2022/03/07 06:46:02;;;;;;;15.90;9.13;;;;;;;-2.78;100.00;102802.31;5074427;28;20051;-58
2022/03/07 06:48:30;;;;;;;14.48;8.43;;;;;;;-2.73;100.00;102803.28;5074313;28;20047;-59
2022/03/07 06:50:58;;;;;;;14.93;8.30;;;;;;;-2.75;100.00;102799.81;5074497;28;20526;-59
2022/03/07 06:53:26;;;;;;;14.63;8.57;;;;;;;-2.73;100.00;102800.72;5074253;28;20063;-59
2022/03/07 06:55:54;;;;;;;17.30;8.77;;;;;;;-2.72;100.00;102799.88;5074434;28;20044;-59
2022/03/07 06:58:24;;;;;;;14.80;8.95;;;;;;;-2.74;100.00;102797.28;5074306;28;20040;-59
2022/03/07 07:00:52;;;;;;;16.42;9.00;;;;;;;-2.71;100.00;102801.63;5074385;28;20056;-59
2022/03/07 07:03:20;;;;;;;16.48;9.32;;;;;;;-2.63;100.00;102796.63;5073114;28;20110;-59
2022/03/07 07:05:49;;;;;;;16.85;9.18;;;;;;;-2.65;100.00;102791.44;5073670;28;20492;-54
2022/03/07 07:08:17;;;;;;;16.10;8.95;;;;;;;-2.62;100.00;102799.25;5073679;28;20053;-59
2022/03/07 07:10:45;;;;;;;15.60;8.93;;;;;;;-2.57;100.00;102800.19;5073795;28;20055;-59
2022/03/07 07:13:14;;;;;;;15.93;9.63;;;;;;;-2.53;100.00;102789.97;5073687;28;20048;-55
2022/03/07 07:15:44;;;;;;;19.65;9.88;;;;;;;-2.50;100.00;102797.75;5073833;28;20049;-52
2022/03/07 07:18:12;;;;;;;16.88;10.05;;;;;;;-2.44;100.00;102790.13;5073615;28;20040;-51
2022/03/07 07:20:40;;;;;;;20.80;10.18;;;;;;;-2.37;100.00;102797.19;5073847;28;20059;-54
2022/03/07 07:23:08;;;;;;;19.02;10.32;;;;;;;-2.33;100.00;102792.94;5072282;28;20048;-54
2022/03/07 07:25:37;;;;;;;18.27;9.85;;;;;;;-2.25;100.00;102788.78;5073471;28;20056;-59
2022/03/07 07:28:05;;;;;;;17.20;10.05;;;;;;;-2.16;100.00;102785.53;5073680;28;20037;-60
2022/03/07 07:30:33;;;;;;;16.98;10.23;;;;;;;-2.05;100.00;102794.34;5073561;28;20053;-60
2022/03/07 07:33:03;;;;;;;18.98;10.85;;;;;;;-1.78;100.00;102790.53;5073642;28;20549;-59
2022/03/07 07:35:33;;;;;;;19.30;10.40;;;;;;;-1.26;100.00;102791.38;5073302;28;20102;-54
2022/03/07 07:38:02;;;;;;;17.50;11.07;;;;;;;-0.57;100.00;102788.03;5073044;28;20044;-59
2022/03/07 07:40:30;;;;;;;17.70;9.45;;;;;;;-0.06;100.00;102779.09;5073216;28;20040;-53
2022/03/07 07:42:58;;;;;;;18.90;10.18;;;;;;;0.26;98.63;102775.06;5073042;28;20356;-55
2022/03/07 07:45:32;;;;;;;19.08;10.13;;;;;;;0.51;95.41;102778.75;5073166;28;20479;-58
2022/03/07 07:48:00;;;;;;;15.68;9.15;;;;;;;0.83;93.04;102780.69;5073048;28;20040;-60
2022/03/07 07:50:30;;;;;;;15.23;8.48;;;;;;;1.26;91.13;102780.94;5073288;28;20041;-60
2022/03/07 07:52:58;;;;;;;15.95;8.32;;;;;;;1.45;89.43;102776.69;5073121;28;20052;-58
2022/03/07 07:55:26;;;;;;;15.60;9.52;;;;;;;1.86;88.14;102783.75;5072715;28;20060;-52
2022/03/07 07:57:54;;;;;;;17.20;8.90;;;;;;;1.91;86.99;102783.78;5072924;28;20051;-54
2022/03/07 08:00:22;;;;;;;16.75;8.80;;;;;;;1.90;87.38;102786.38;5072791;28;20128;-52
2022/03/07 08:02:51;;;;;;;15.27;8.75;;;;;;;2.41;84.99;102789.84;5071858;28;20048;-55
2022/03/07 08:05:21;;;;;;;14.20;8.52;;;;;;;2.68;83.60;102795.91;5072443;28;20060;-50
2022/03/07 08:07:51;;;;;;;13.40;8.52;;;;;;;2.78;82.87;102807.16;5072804;28;20249;-52
2022/03/07 08:10:19;;;;;;;15.25;8.25;;;;;;;3.03;80.70;102803.66;5071599;28;20568;-53
2022/03/07 08:12:48;;;;;;;12.38;8.02;;;;;;;3.14;80.50;102800.19;5072981;28;20499;-53
2022/03/07 08:15:19;;;;;;;13.73;8.40;;;;;;;3.25;79.45;102807.97;5072699;28;20499;-53
2022/03/07 08:17:50;;;;;;;13.00;7.72;;;;;;;3.35;78.48;102807.94;5072996;28;20079;-53
2022/03/07 08:20:19;;;;;;;14.02;8.57;;;;;;;3.55;77.93;102809.56;5072795;28;20503;-53
2022/03/07 08:22:48;;;;;;;14.18;7.80;;;;;;;3.17;75.54;102811.44;5072762;28;20414;-51
2022/03/07 08:25:18;;;;;;;12.88;7.43;;;;;;;3.79;75.45;102813.81;5072599;28;20057;-53
2022/03/07 08:27:46;;;;;;;12.70;7.60;;;;;;;3.96;71.84;102811.09;5072567;28;20392;-49
2022/03/07 08:30:16;;;;;;;12.75;7.40;;;;;;;4.22;72.83;102813.50;5072545;28;20048;-54
2022/03/07 08:32:44;;;;;;;15.82;8.27;;;;;;;4.48;73.00;102807.25;5072465;28;20058;-52
2022/03/07 08:35:13;;;;;;;12.57;6.97;;;;;;;4.59;70.86;102816.72;5072388;28;20086;-54
2022/03/07 08:37:42;;;;;;;13.27;7.20;;;;;;;4.84;69.97;102815.63;5072269;28;20052;-54
2022/03/07 08:40:11;;;;;;;13.52;7.63;;;;;;;4.72;70.24;102816.59;5072516;28;20048;-54
2022/03/07 08:42:41;;;;;;;11.32;7.45;;;;;;;4.73;70.39;102817.44;5072492;28;20462;-52
2022/03/07 08:45:11;;;;;;;13.27;7.65;;;;;;;4.94;69.63;102816.41;5072391;28;20064;-54
2022/03/07 08:47:40;;;;;;;14.55;7.82;;;;;;;5.13;70.37;102827.50;5072308;28;20048;-53
2022/03/07 08:50:11;;;;;;;14.25;7.47;;;;;;;5.42;69.44;102818.47;5072248;28;20411;-54
2022/03/07 08:52:40;;;;;;;13.57;7.50;;;;;;;5.35;67.89;102811.63;5072243;28;20059;-52
2022/03/07 08:55:09;;;;;;;11.73;6.32;;;;;;;5.77;66.13;102825.00;5072408;28;20099;-52
2022/03/07 08:57:38;;;;;;;10.10;6.50;;;;;;;5.54;65.83;102823.56;5072198;28;20087;-51
2022/03/07 09:00:11;;;;;;;10.85;6.78;;;;;;;5.73;66.47;102818.09;5072492;28;20044;-54
2022/03/07 09:02:46;;;;;;;10.45;6.22;;;;;;;5.72;64.50;102805.94;5072560;28;20056;-55
2022/03/07 09:05:15;;;;;;;10.18;6.22;;;;;;;5.68;63.42;102809.47;5072029;28;20057;-54
2022/03/07 09:07:44;;;;;;;10.07;6.40;;;;;;;5.75;63.79;102801.53;5071819;28;20411;-52
2022/03/07 09:10:12;;;;;;;12.73;6.93;;;;;;;5.88;65.96;102799.59;5071466;28;20056;-53
2022/03/07 09:12:40;;;;;;;11.23;7.60;;;;;;;6.22;62.78;102812.19;5071776;28;20047;-54
2022/03/07 09:15:10;;;;;;;12.00;6.47;;;;;;;6.24;63.23;102802.59;5071781;28;20504;-56
2022/03/07 09:17:38;;;;;;;9.75;6.47;;;;;;;6.33;63.93;102796.34;5072007;28;20063;-53
2022/03/07 09:20:08;;;;;;;11.63;7.53;;;;;;;6.43;62.69;102800.56;5071848;28;20052;-54
2022/03/07 09:22:36;;;;;;;10.95;6.40;;;;;;;6.58;59.75;102801.16;5072072;28;20044;-52
2022/03/07 09:25:05;;;;;;;15.27;5.93;;;;;;;6.67;57.95;102808.88;5072045;28;20047;-54
2022/03/07 09:27:35;;;;;;;10.57;6.68;;;;;;;6.62;58.42;102805.47;5075718;28;20048;-53
2022/03/07 09:30:04;;;;;;;10.45;6.72;;;;;;;6.76;60.50;102805.22;5075892;28;20109;-52
2022/03/07 09:32:34;;;;;;;10.23;6.20;;;;;;;6.55;59.45;102804.69;5075955;28;20048;-54
2022/03/07 09:35:04;;;;;;;8.88;5.40;;;;;;;6.74;55.77;102812.25;5076000;28;20379;-54
2022/03/07 09:37:32;;;;;;;9.65;5.20;;;;;;;6.69;55.03;102807.06;5075929;28;20105;-54
2022/03/07 09:40:00;;;;;;;9.00;5.90;;;;;;;6.82;56.81;102812.97;5075906;28;20419;-52
2022/03/07 09:42:28;;;;;;;9.05;5.80;;;;;;;6.94;55.76;102804.88;5075729;28;20045;-52
2022/03/07 09:44:56;;;;;;;10.20;4.95;;;;;;;7.17;54.08;102810.56;5075795;28;20048;-53
2022/03/07 09:47:27;;;;;;;10.05;5.90;;;;;;;6.86;53.40;102809.41;5075614;28;20053;-58
2022/03/07 09:49:56;;;;;;;9.20;5.28;;;;;;;6.86;54.61;102804.16;5075479;28;20158;-58
2022/03/07 09:52:25;;;;;;;9.10;5.50;;;;;;;6.86;54.00;102808.56;5075905;28;20510;-58
2022/03/07 09:54:54;;;;;;;9.98;5.00;;;;;;;7.09;52.88;102801.13;5075435;28;20055;-59
2022/03/07 09:57:22;;;;;;;8.57;4.75;;;;;;;7.42;50.45;102787.41;5075432;28;20048;-59
2022/03/07 09:59:50;;;;;;;8.85;5.22;;;;;;;7.65;50.45;102781.66;5075453;28;20044;-59
2022/03/07 10:02:24;;;;;;;9.18;5.13;;;;;;;7.53;52.13;102790.63;5075358;28;20051;-59
2022/03/07 10:04:53;;;;;;;8.77;5.10;;;;;;;7.60;51.85;102773.88;5075386;28;20049;-59
2022/03/07 10:07:22;;;;;;;9.40;6.05;;;;;;;7.80;51.94;102777.84;5074795;28;20564;-59
2022/03/07 10:09:50;;;;;;;9.27;5.28;;;;;;;7.89;50.73;102771.53;5074769;28;20483;-58
2022/03/07 10:12:28;;;;;;;11.98;5.80;;;;;;;8.12;51.11;102768.34;5074863;28;20076;-59
2022/03/07 10:14:56;;;;;;;9.60;5.70;;;;;;;8.24;51.35;102772.44;5075164;28;20044;-59
2022/03/07 10:17:26;;;;;;;8.38;5.30;;;;;;;8.45;49.93;102776.31;5075148;28;20060;-59
2022/03/07 10:19:56;;;;;;;11.88;5.18;;;;;;;8.51;49.04;102772.66;5074859;28;20047;-58
2022/03/07 10:22:28;;;;;;;9.25;5.13;;;;;;;8.70;48.07;102773.03;5073730;28;20059;-58
2022/03/07 10:25:00;;;;;;;8.23;4.57;;;;;;;8.43;47.93;102759.75;5074870;28;20053;-58
2022/03/07 10:27:30;;;;;;;9.45;4.78;;;;;;;8.64;46.80;102766.22;5074977;28;20409;-59
2022/03/07 10:29:58;;;;;;;10.35;4.18;;;;;;;8.59;45.68;102753.22;5074876;28;20048;-58
2022/03/07 10:32:26;;;;;;;7.88;4.93;;;;;;;8.89;45.79;102749.81;5074556;28;20049;-58
2022/03/07 10:34:54;;;;;;;7.75;4.65;;;;;;;9.10;45.44;102758.84;5074574;28;20048;-58
2022/03/07 10:37:34;;;;;;;8.13;4.57;;;;;;;9.03;45.03;102750.28;5073259;28;20051;-61
2022/03/07 10:40:03;;;;;;;11.00;4.68;;;;;;;9.38;45.64;102742.28;5073430;28;20066;-60
2022/03/07 10:42:31;;;;;;;7.88;4.05;;;;;;;9.36;43.41;102736.22;5074589;28;20082;-60
2022/03/07 10:45:05;;;;;;;8.70;3.67;;;;;;;9.54;43.11;102737.44;5074466;28;20098;-61
2022/03/07 10:47:33;;;;;;;7.82;4.55;;;;;;;9.34;44.15;102733.66;5074409;28;20049;-61
2022/03/07 10:50:03;;;;;;;7.85;4.30;;;;;;;9.20;43.56;102733.19;5074341;28;20060;-58
2022/03/07 10:52:37;;;;;;;6.30;3.63;;;;;;;9.48;43.51;102722.72;5074192;28;20515;-58
2022/03/07 10:55:06;;;;;;;9.70;4.25;;;;;;;9.79;42.91;102721.78;5073947;28;20044;-61
2022/03/07 10:57:37;;;;;;;11.55;4.00;;;;;;;10.34;42.29;102726.13;5074331;28;20087;-61
2022/03/07 11:00:08;;;;;;;11.30;4.18;;;;;;;10.17;42.25;102721.41;5074116;28;20045;-60
2022/03/07 11:02:42;;;;;;;8.00;4.35;;;;;;;10.78;41.98;102718.44;5074166;28;20135;-57
2022/03/07 11:05:11;;;;;;;7.10;3.83;;;;;;;10.51;41.75;102713.25;5074089;28;20549;-60
2022/03/07 11:07:42;;;;;;;8.43;4.15;;;;;;;10.19;42.04;102709.94;5073991;28;20451;-52
2022/03/07 11:10:12;;;;;;;7.80;4.10;;;;;;;10.15;42.34;102706.53;5073955;28;20113;-59
2022/03/07 11:12:41;;;;;;;8.57;4.70;;;;;;;10.45;43.65;102702.97;5074161;28;20048;-58
2022/03/07 11:15:11;;;;;;;8.02;4.72;;;;;;;10.04;42.94;102699.94;5073903;28;20049;-55
2022/03/07 11:17:41;;;;;;;8.30;4.82;;;;;;;9.70;44.83;102706.31;5073830;28;20060;-55
2022/03/07 11:20:11;;;;;;;7.78;4.47;;;;;;;10.26;43.16;102703.53;5073761;28;20045;-56
2022/03/07 11:22:41;;;;;;;9.57;4.65;;;;;;;10.09;44.12;102695.38;5073938;28;20056;-54
2022/03/07 11:25:15;;;;;;;9.45;4.85;;;;;;;10.58;43.80;102704.25;5073852;28;20052;-53
2022/03/07 11:27:43;;;;;;;8.95;5.05;;;;;;;10.22;43.48;102701.09;5073469;28;20119;-60